createdAt,value
2019-01-15T00:00:10.810Z,21.8
2019-01-15T00:03:16.733Z,21.7
2019-01-15T00:06:22.728Z,21.7
2019-01-15T00:09:28.764Z,21.7
2019-01-15T00:12:37.644Z,21.7
2019-01-15T00:15:43.531Z,21.7
2019-01-15T00:18:49.491Z,21.6
2019-01-15T00:21:55.371Z,21.6
2019-01-15T00:25:01.339Z,21.6
2019-01-15T00:28:07.391Z,21.6
2019-01-15T00:31:13.451Z,21.6
2019-01-15T00:34:19.489Z,21.6
2019-01-15T00:37:25.366Z,21.6
2019-01-15T00:40:31.310Z,21.5
2019-01-15T00:43:37.258Z,21.5
2019-01-15T00:46:43.428Z,21.5
2019-01-15T00:49:49.472Z,21.5
2019-01-15T00:52:55.448Z,21.5
2019-01-15T00:56:01.396Z,21.5
2019-01-15T00:59:07.474Z,21.5
2019-01-15T01:02:13.404Z,21.4
2019-01-15T01:05:19.348Z,21.4
2019-01-15T01:08:28.133Z,21.4
2019-01-15T01:11:36.950Z,21.4
2019-01-15T01:14:42.933Z,21.5
2019-01-15T01:17:48.965Z,21.5
2019-01-15T01:20:54.843Z,21.6
2019-01-15T01:24:00.830Z,21.6
2019-01-15T01:27:06.747Z,21.6
2019-01-15T01:30:12.706Z,21.6
2019-01-15T01:33:18.561Z,21.7
2019-01-15T01:36:24.586Z,21.7
2019-01-15T01:39:30.479Z,21.7
2019-01-15T01:42:36.510Z,21.7
2019-01-15T01:45:42.402Z,21.7
2019-01-15T01:48:48.340Z,21.8
2019-01-15T01:51:54.291Z,21.8
2019-01-15T01:55:00.252Z,21.8
2019-01-15T01:58:06.359Z,21.8
2019-01-15T02:01:12.379Z,21.8
2019-01-15T02:04:18.277Z,21.8
2019-01-15T02:07:24.397Z,21.9
2019-01-15T02:10:30.355Z,21.9
2019-01-15T02:13:36.313Z,21.9
2019-01-15T02:16:42.285Z,21.9
2019-01-15T02:19:48.251Z,21.9
2019-01-15T02:22:54.282Z,21.9
2019-01-15T02:26:00.243Z,22
2019-01-15T02:29:06.273Z,22
2019-01-15T02:32:12.364Z,22
2019-01-15T02:35:18.412Z,22
2019-01-15T02:38:24.536Z,22
2019-01-15T02:41:30.610Z,22
2019-01-15T02:44:36.546Z,22
2019-01-15T02:47:42.525Z,22
2019-01-15T02:50:48.531Z,22.1
2019-01-15T02:53:54.754Z,22.1
2019-01-15T02:57:02.437Z,22.1
2019-01-15T03:00:08.367Z,22.1
2019-01-15T03:03:14.314Z,22.1
2019-01-15T03:06:20.266Z,22.1
2019-01-15T03:09:26.255Z,22.1
2019-01-15T03:12:32.239Z,22.1
2019-01-15T03:15:38.205Z,22.1
2019-01-15T03:18:44.298Z,22.1
2019-01-15T03:21:52.013Z,22.2
2019-01-15T03:24:58.096Z,22.2
2019-01-15T03:28:03.968Z,22.2
2019-01-15T03:31:09.924Z,22.2
2019-01-15T03:34:15.821Z,22.2
2019-01-15T03:37:21.816Z,22.2
2019-01-15T03:40:27.894Z,22.2
2019-01-15T03:43:33.794Z,22.2
2019-01-15T03:46:39.798Z,22.2
2019-01-15T03:49:45.876Z,22.2
2019-01-15T03:52:51.879Z,22.2
2019-01-15T03:55:57.812Z,22.2
2019-01-15T03:59:03.835Z,22.3
2019-01-15T04:02:09.861Z,22.3
2019-01-15T04:05:15.882Z,22.4
2019-01-15T04:08:21.841Z,22.4
2019-01-15T04:11:27.730Z,22.5
2019-01-15T04:14:33.633Z,22.5
2019-01-15T04:17:39.652Z,22.6
2019-01-15T04:20:45.646Z,22.6
2019-01-15T04:23:51.604Z,22.6
2019-01-15T04:26:57.795Z,22.6
2019-01-15T04:30:03.763Z,22.7
2019-01-15T04:33:09.699Z,22.7
2019-01-15T04:36:18.351Z,22.8
2019-01-15T04:39:24.409Z,22.8
2019-01-15T04:42:30.395Z,22.8
2019-01-15T04:45:36.354Z,22.9
2019-01-15T04:48:42.390Z,22.9
2019-01-15T04:51:51.094Z,22.9
2019-01-15T04:54:57.066Z,22.9
2019-01-15T04:58:03.061Z,22.9
2019-01-15T05:01:09.066Z,23
2019-01-15T05:04:14.965Z,23
2019-01-15T05:07:20.960Z,23
2019-01-15T05:10:26.993Z,23
2019-01-15T05:13:33.000Z,23
2019-01-15T05:16:39.000Z,23.1
2019-01-15T05:19:44.962Z,23.1
2019-01-15T05:22:51.035Z,23.1
2019-01-15T05:25:57.144Z,23.1
2019-01-15T05:29:03.112Z,23.1
2019-01-15T05:32:09.059Z,23.2
2019-01-15T05:35:15.104Z,23.1
2019-01-15T05:38:21.164Z,23.2
2019-01-15T05:41:27.177Z,23.3
2019-01-15T05:44:33.210Z,23.3
2019-01-15T05:47:39.114Z,23.3
2019-01-15T05:50:45.061Z,23.1
2019-01-15T05:53:51.034Z,23
2019-01-15T05:56:57.012Z,23.1
2019-01-15T06:00:02.962Z,23.1
2019-01-15T06:03:08.964Z,23.2
2019-01-15T06:06:14.973Z,23.3
2019-01-15T06:09:20.826Z,23.4
2019-01-15T06:12:26.789Z,23.4
2019-01-15T06:15:32.638Z,23.5
2019-01-15T06:18:38.632Z,23.6
2019-01-15T06:21:45.712Z,23.6
2019-01-15T06:24:54.263Z,23.6
2019-01-15T06:28:00.357Z,23.6
2019-01-15T06:31:06.362Z,23.7
2019-01-15T06:34:12.576Z,23.7
2019-01-15T06:37:18.678Z,23.8
2019-01-15T06:40:24.616Z,23.9
2019-01-15T06:43:30.900Z,23.9
2019-01-15T06:46:36.842Z,24
2019-01-15T06:49:42.836Z,24
2019-01-15T06:52:48.764Z,24.1
2019-01-15T06:55:54.789Z,24.2
2019-01-15T06:59:00.869Z,24.1
2019-01-15T07:02:06.792Z,24.2
2019-01-15T07:05:14.191Z,24.1
2019-01-15T07:08:20.248Z,24.2
2019-01-15T07:11:26.309Z,24.1
2019-01-15T07:14:32.388Z,24.1
2019-01-15T07:17:38.610Z,24.2
2019-01-15T07:20:44.798Z,24.2
2019-01-15T07:23:50.914Z,24.2
2019-01-15T07:26:59.632Z,24.2
2019-01-15T07:30:05.552Z,24.2
2019-01-15T07:33:11.593Z,24.2
2019-01-15T07:36:17.709Z,24.2
2019-01-15T07:39:23.915Z,24.1
2019-01-15T07:42:29.971Z,24.2
2019-01-15T07:45:35.829Z,24.3
2019-01-15T07:48:42.827Z,24.3
2019-01-15T07:51:49.800Z,24.3
2019-01-15T07:54:55.754Z,24.4
2019-01-15T07:58:01.789Z,24.4
2019-01-15T08:01:08.788Z,24.4
2019-01-15T08:04:15.036Z,24.4
2019-01-15T08:07:20.992Z,24.4
2019-01-15T08:10:27.207Z,24.4
2019-01-15T08:13:33.330Z,24.5
2019-01-15T08:16:39.324Z,24.5
2019-01-15T08:19:45.228Z,24.5
2019-01-15T08:22:51.208Z,24.5
2019-01-15T08:25:57.364Z,24.6
2019-01-15T08:29:03.477Z,24.6
2019-01-15T08:32:09.656Z,24.6
2019-01-15T08:35:16.046Z,24.7
2019-01-15T08:38:21.981Z,24.7
2019-01-15T08:41:27.957Z,24.7
2019-01-15T08:44:34.235Z,24.7
2019-01-15T08:47:40.198Z,24.8
2019-01-15T08:50:46.345Z,24.8
2019-01-15T08:53:52.324Z,24.8
2019-01-15T08:56:58.303Z,24.8
2019-01-15T09:00:04.299Z,24.9
2019-01-15T09:03:10.341Z,24.9
2019-01-15T09:06:16.421Z,24.9
2019-01-15T09:09:23.496Z,24.9
2019-01-15T09:12:29.723Z,24.9
2019-01-15T09:15:36.826Z,24.9
2019-01-15T09:18:42.797Z,24.9
2019-01-15T09:21:49.942Z,25
2019-01-15T09:24:56.212Z,25
2019-01-15T09:28:02.216Z,25
2019-01-15T09:31:08.264Z,25
2019-01-15T09:34:14.442Z,25
2019-01-15T09:37:20.412Z,24.9
2019-01-15T09:40:26.427Z,25
2019-01-15T09:43:32.349Z,25.1
2019-01-15T09:46:38.443Z,25
2019-01-15T09:49:44.410Z,25.1
2019-01-15T09:52:50.375Z,25.1
2019-01-15T09:55:56.477Z,25.1
2019-01-15T09:59:02.619Z,25.1
2019-01-15T10:02:09.896Z,25.1
2019-01-15T10:05:15.949Z,25
2019-01-15T10:08:21.970Z,25
2019-01-15T10:11:27.872Z,25
2019-01-15T10:14:40.987Z,25
2019-01-15T10:17:47.127Z,25
2019-01-15T10:20:53.146Z,25.1
2019-01-15T10:23:59.256Z,25
2019-01-15T10:27:05.298Z,25
2019-01-15T10:30:11.229Z,25
2019-01-15T10:33:17.410Z,25
2019-01-15T10:36:23.311Z,25
2019-01-15T10:39:29.422Z,25
2019-01-15T10:42:35.503Z,25
2019-01-15T10:45:42.557Z,25.1
2019-01-15T10:48:48.830Z,25.2
2019-01-15T10:51:54.815Z,25.3
2019-01-15T10:55:01.044Z,25.2
2019-01-15T10:58:07.099Z,25.3
2019-01-15T11:01:20.681Z,25.3
2019-01-15T11:04:26.616Z,25.3
2019-01-15T11:07:32.715Z,25.4
2019-01-15T11:10:39.724Z,25.4
2019-01-15T11:13:45.889Z,25.3
2019-01-15T11:16:51.926Z,25.4
2019-01-15T11:19:57.797Z,25.4
2019-01-15T11:23:03.955Z,25.4
2019-01-15T11:26:09.951Z,25.4
2019-01-15T11:29:15.939Z,25.4
2019-01-15T11:32:21.952Z,25.4
2019-01-15T11:35:27.999Z,25.5
2019-01-15T11:38:34.260Z,25.4
2019-01-15T11:41:43.021Z,25.5
2019-01-15T11:44:49.356Z,25.5
2019-01-15T11:47:55.288Z,25.4
2019-01-15T11:51:01.675Z,25.5
2019-01-15T11:54:07.844Z,25.5
2019-01-15T11:57:13.821Z,25.5
2019-01-15T12:00:19.864Z,25.5
2019-01-15T12:03:25.871Z,25.5
2019-01-15T12:06:31.894Z,25.6
2019-01-15T12:09:37.854Z,25.6
2019-01-15T12:12:44.323Z,25.6
2019-01-15T12:15:51.036Z,25.6
2019-01-15T12:18:58.080Z,25.6
2019-01-15T12:22:04.227Z,25.7
2019-01-15T12:25:10.744Z,25.7
2019-01-15T12:28:17.268Z,25.7
2019-01-15T12:31:23.696Z,25.7
2019-01-15T12:34:29.814Z,25.7
2019-01-15T12:37:35.839Z,25.7
2019-01-15T12:40:42.205Z,25.7
2019-01-15T12:43:50.278Z,25.7
2019-01-15T12:46:57.267Z,25.7
2019-01-15T12:50:03.183Z,25.7
2019-01-15T12:53:09.302Z,25.7
2019-01-15T12:56:15.250Z,25.7
2019-01-15T12:59:21.199Z,25.7
2019-01-15T13:02:27.182Z,25.7
2019-01-15T13:05:33.167Z,25.7
2019-01-15T13:08:39.277Z,25.8
2019-01-15T13:11:45.446Z,25.7
2019-01-15T13:14:51.444Z,25.7
2019-01-15T13:17:57.364Z,25.8
2019-01-15T13:21:03.426Z,25.7
2019-01-15T13:24:09.390Z,25.7
2019-01-15T13:27:15.396Z,25.8
2019-01-15T13:30:21.365Z,25.8
2019-01-15T13:33:27.436Z,25.8
2019-01-15T13:36:40.547Z,25.9
2019-01-15T13:39:49.218Z,25.9
2019-01-15T13:42:56.653Z,25.9
2019-01-15T13:46:02.735Z,25.9
2019-01-15T13:49:08.805Z,25.9
2019-01-15T13:52:14.907Z,25.9
2019-01-15T13:55:22.351Z,25.8
2019-01-15T13:58:29.912Z,25.8
2019-01-15T14:01:35.976Z,25.9
2019-01-15T14:04:42.017Z,25.9
2019-01-15T14:07:48.211Z,25.9
2019-01-15T14:10:54.178Z,25.9
2019-01-15T14:14:00.368Z,25.8
2019-01-15T14:17:06.366Z,25.8
2019-01-15T14:20:12.345Z,25.8
2019-01-15T14:23:19.114Z,25.8
2019-01-15T14:26:25.135Z,25.8
2019-01-15T14:29:31.234Z,25.8
2019-01-15T14:32:38.402Z,25.7
2019-01-15T14:35:44.429Z,25.7
2019-01-15T14:38:50.851Z,25.7
2019-01-15T14:41:56.759Z,25.7
2019-01-15T14:45:02.895Z,25.7
2019-01-15T14:48:09.447Z,25.6
2019-01-15T14:51:15.532Z,25.6
2019-01-15T14:54:23.105Z,25.6
2019-01-15T14:57:29.156Z,25.6
2019-01-15T15:00:35.259Z,25.6
2019-01-15T15:03:41.333Z,25.6
2019-01-15T15:06:47.407Z,25.5
2019-01-15T15:09:53.413Z,25.6
2019-01-15T15:12:59.346Z,25.5
2019-01-15T15:16:05.333Z,25.5
2019-01-15T15:19:11.241Z,25.5
2019-01-15T15:22:17.304Z,25.5
2019-01-15T15:25:23.241Z,25.5
2019-01-15T15:28:30.769Z,25.5
2019-01-15T15:31:36.892Z,25.5
2019-01-15T15:34:45.861Z,25.4
2019-01-15T15:37:51.990Z,25.5
2019-01-15T15:40:57.945Z,25.5
2019-01-15T15:44:04.040Z,25.5
2019-01-15T15:47:09.993Z,25.4
2019-01-15T15:50:18.504Z,25.5
2019-01-15T15:53:25.403Z,25.4
2019-01-15T15:56:31.624Z,25.4
2019-01-15T15:59:37.697Z,25.4
2019-01-15T16:02:43.642Z,25.4
2019-01-15T16:05:49.647Z,25.4
2019-01-15T16:08:55.516Z,25.4
2019-01-15T16:12:01.503Z,25.4
2019-01-15T16:15:07.538Z,25.4
2019-01-15T16:18:13.544Z,25.3
2019-01-15T16:21:19.452Z,25.3
2019-01-15T16:24:25.501Z,25.3
2019-01-15T16:27:31.561Z,25.3
2019-01-15T16:30:37.541Z,25.3
2019-01-15T16:33:43.647Z,25.2
2019-01-15T16:36:50.641Z,25.2
2019-01-15T16:39:56.694Z,25.2
2019-01-15T16:43:02.643Z,25.2
2019-01-15T16:46:08.604Z,25.2
2019-01-15T16:49:14.582Z,25.2
2019-01-15T16:52:20.484Z,25.2
2019-01-15T16:55:26.482Z,25.1
2019-01-15T16:58:32.548Z,25.1
2019-01-15T17:01:38.507Z,25.1
2019-01-15T17:04:44.633Z,25
2019-01-15T17:07:50.575Z,25.1
2019-01-15T17:10:56.588Z,25
2019-01-15T17:14:02.581Z,25
2019-01-15T17:17:08.466Z,25
2019-01-15T17:20:14.498Z,25
2019-01-15T17:23:20.468Z,25
2019-01-15T17:26:26.552Z,25
2019-01-15T17:29:32.491Z,25
2019-01-15T17:32:38.417Z,24.9
2019-01-15T17:35:44.435Z,24.9
2019-01-15T17:38:50.374Z,24.9
2019-01-15T17:41:56.412Z,24.9
2019-01-15T17:45:02.294Z,24.9
2019-01-15T17:48:08.344Z,24.9
2019-01-15T17:51:14.214Z,24.9
2019-01-15T17:54:20.153Z,24.9
2019-01-15T17:57:26.034Z,24.8
2019-01-15T18:00:32.145Z,24.8
2019-01-15T18:03:38.163Z,24.8
2019-01-15T18:06:44.112Z,24.7
2019-01-15T18:09:50.049Z,24.7
2019-01-15T18:12:55.928Z,24.7
2019-01-15T18:16:01.902Z,24.6
2019-01-15T18:19:07.902Z,24.6
2019-01-15T18:22:13.849Z,24.6
2019-01-15T18:25:19.825Z,24.6
2019-01-15T18:28:25.724Z,24.5
2019-01-15T18:31:31.666Z,24.5
2019-01-15T18:34:40.376Z,24.5
2019-01-15T18:37:46.586Z,24.5
2019-01-15T18:40:52.603Z,24.4
2019-01-15T18:43:58.549Z,24.4
2019-01-15T18:47:04.586Z,24.4
2019-01-15T18:50:10.717Z,24.3
2019-01-15T18:53:16.656Z,24.3
2019-01-15T18:56:22.544Z,24.3
2019-01-15T18:59:28.601Z,24.3
2019-01-15T19:02:34.712Z,24.3
2019-01-15T19:05:40.610Z,24.2
2019-01-15T19:08:46.642Z,24.2
2019-01-15T19:11:55.520Z,24.2
2019-01-15T19:15:01.522Z,24.2
2019-01-15T19:18:07.421Z,24.2
2019-01-15T19:21:13.359Z,24.1
2019-01-15T19:24:19.312Z,24.1
2019-01-15T19:27:25.300Z,24.1
2019-01-15T19:30:31.230Z,24
2019-01-15T19:33:37.229Z,24
2019-01-15T19:36:43.223Z,24
2019-01-15T19:39:49.219Z,24
2019-01-15T19:42:55.052Z,24
2019-01-15T19:46:01.043Z,24
2019-01-15T19:49:06.914Z,23.9
2019-01-15T19:52:12.886Z,23.9
2019-01-15T19:55:18.835Z,23.9
2019-01-15T19:58:24.743Z,23.9
2019-01-15T20:01:30.751Z,23.9
2019-01-15T20:04:36.621Z,23.8
2019-01-15T20:07:42.586Z,23.8
2019-01-15T20:10:48.535Z,23.8
2019-01-15T20:13:54.568Z,23.8
2019-01-15T20:17:00.615Z,23.7
2019-01-15T20:20:06.584Z,23.6
2019-01-15T20:23:12.480Z,23.6
2019-01-15T20:26:18.494Z,23.5
2019-01-15T20:29:24.456Z,23.4
2019-01-15T20:32:30.422Z,23.4
2019-01-15T20:35:36.389Z,23.3
2019-01-15T20:38:42.274Z,23.2
2019-01-15T20:41:48.248Z,23.2
2019-01-15T20:44:54.375Z,23.1
2019-01-15T20:48:00.249Z,23.1
2019-01-15T20:51:06.203Z,23
2019-01-15T20:54:12.064Z,23
2019-01-15T20:57:18.011Z,22.9
2019-01-15T21:00:23.881Z,22.9
2019-01-15T21:03:29.858Z,22.8
2019-01-15T21:06:35.800Z,22.8
2019-01-15T21:09:41.780Z,22.7
2019-01-15T21:12:50.543Z,22.7
2019-01-15T21:15:56.485Z,22.6
2019-01-15T21:19:02.475Z,22.6
2019-01-15T21:22:08.369Z,22.5
2019-01-15T21:25:14.311Z,22.5
2019-01-15T21:28:20.283Z,22.5
2019-01-15T21:31:26.223Z,22.5
2019-01-15T21:37:36.406Z,22.4
2019-01-15T21:40:42.383Z,22.4
2019-01-15T21:43:50.809Z,22.3
2019-01-15T21:46:56.836Z,22.3
2019-01-15T21:50:02.723Z,22.3
2019-01-15T21:53:08.639Z,22.2
2019-01-15T21:56:14.534Z,22.2
2019-01-15T21:59:20.505Z,22.2
2019-01-15T22:02:26.455Z,22.1
2019-01-15T22:05:32.390Z,22.1
2019-01-15T22:08:39.783Z,22.1
2019-01-15T22:11:45.799Z,22.1
2019-01-15T22:14:51.758Z,22.1
2019-01-15T22:17:57.732Z,22
2019-01-15T22:21:03.683Z,22
2019-01-15T22:24:09.599Z,22
2019-01-15T22:27:15.638Z,22
2019-01-15T22:30:21.519Z,22
2019-01-15T22:33:27.459Z,21.9
2019-01-15T22:36:33.441Z,21.9
2019-01-15T22:39:39.371Z,21.9
2019-01-15T22:42:45.373Z,21.9
2019-01-15T22:45:51.267Z,21.8
2019-01-15T22:48:57.246Z,21.8
2019-01-15T22:52:03.264Z,21.8
2019-01-15T22:55:09.427Z,21.8
2019-01-15T22:58:15.404Z,21.8
2019-01-15T23:01:23.476Z,21.8
2019-01-15T23:04:29.431Z,21.7
2019-01-15T23:07:35.384Z,21.7
2019-01-15T23:10:41.349Z,21.7
2019-01-15T23:13:47.206Z,21.7
2019-01-15T23:16:53.275Z,21.7
2019-01-15T23:19:59.244Z,21.7
2019-01-15T23:23:05.202Z,21.7
2019-01-15T23:26:11.220Z,21.7
2019-01-15T23:29:17.232Z,21.6
2019-01-15T23:32:23.306Z,21.6
2019-01-15T23:35:29.339Z,21.6
2019-01-15T23:38:35.241Z,21.6
2019-01-15T23:41:41.187Z,21.6
2019-01-15T23:44:47.197Z,21.6
2019-01-15T23:47:53.071Z,21.6
2019-01-15T23:50:59.051Z,21.5
2019-01-15T23:54:05.101Z,21.5
2019-01-15T23:57:11.025Z,21.5
